Liam Núñez

Scout - Mitre
13 Nov 2027
Samstag
Verarbeitung

Persönlichkeit

Anpassungsfähigkeit (9) Ehrgeiz (19) Kontroverse (20) Loyalität (1) Druck (12) Professionalität (20) Fairness (8) Temperament (14)

Profil

Trainerstil Demokratisch
Lizenz Nationale A
Entschlossenheit 1
Menschenführung 4
Motivation 2
Disziplin 3
Arbeitszufriedenheit
100%
Ermüdung
0%
Rolle Scout
Gehalt 11.4K p/W
Vertrag 14.03.2028

Leistung

Verhalten Gut
Trainingseffektivität
18%
Spielerentwicklung
5%
Verletzungsprävention
25%
Taktische Umsetzung
20%

Letzte Ereignisse

Nahm an einer Scouting-Besprechung teil 7T her
Nahm an einer Scouting-Besprechung teil 14T her
Nahm an einer Scouting-Besprechung teil 21T her
Nahm an einer Scouting-Besprechung teil 28T her
Nahm an einer Scouting-Besprechung teil 35T her
Nahm an einer Scouting-Besprechung teil 42T her
Nahm an einer Scouting-Besprechung teil 49T her
Nahm an einer Scouting-Besprechung teil 56T her

Aktuell beobachtet

109
Spieler Verein Status Fähigkeit Vertrauen Beobachtet Zuletzt beobachtet Letzte Stimme
Nicolás Borsotti Defensores Aktiv 104 / 109 42% 1 / 1m 21.04.2027 -
Bautista González Defensores Aktiv 92 / 97 30% 1 / 1m 21.04.2027 -
Alejo Fernández O'Higgins Aktiv 93 / 92 40% 1 27.11.2026 -
Tomás González Estudiantes Aktiv 98 / 117 40% 1 27.11.2026 -
Juan Moreno La Luz Aktiv 125 / 126 40% 2 26.11.2026 -
Luis Ureta Universidad Catolica Aktiv 100 / 91 40% 1 26.11.2026 -
Mathías Bernatene Liverpool Montevideo Aktiv 87 / 102 40% 3 25.11.2026 -
Gianfranco Trasante Progreso Aktiv 106 / 99 40% 1 25.11.2026 -
Máximo Alonso Central Espanol Aktiv 103 / 99 40% 1 25.11.2026 -
José Arbío River Plate Aktiv 96 / 111 40% 1 25.11.2026 -
Máximo Tabuchi Cortulua Aktiv 61 / 64 40% 1 24.11.2026 -
Hernán Domínguez Nacional Aktiv 91 / 77 40% 1 24.11.2026 -
Enzo Vlaeminch Oriental Aktiv 95 / 97 40% 2 23.11.2026 -
Emanuel Kovacs Sol de America Aktiv 91 / 81 40% 1 23.11.2026 -
Luciano Jachfe Nueva Chicago Aktiv 107 / 112 40% 2 22.11.2026 -
Emiliano Bermúdez Oriental Aktiv 101 / 98 40% 1 22.11.2026 -
Yamil García Rampla Juniors Aktiv 102 / 103 40% 2 19.11.2026 -
Lorenzo Monti Temperley Aktiv 112 / 107 40% 2 19.11.2026 -
Tomás Rayer Sportivo Trinidense Aktiv 101 / 92 40% 2 18.11.2026 -
Iván Cabrera Atletico Venezuela Aktiv 91 / 92 40% 1 18.11.2026 -
Mathías Bordón Sol de America Aktiv 72 / 96 40% 1 15.11.2026 -
Daniel Molina Caracas Aktiv 86 / 98 40% 1 14.11.2026 -
Franco Fagúndez Estudiantes Aktiv 117 / 113 40% 1 14.11.2026 -
Raúl Lozano Quilmes Aktiv 111 / 120 40% 2 09.11.2026 -
Ayrton Castro Miramar Misiones Aktiv 84 / 88 40% 1 09.11.2026 -
Lucas Bernal Santiago Wanderers Aktiv 101 / 101 40% 1 08.11.2026 -
Luis Olivera Defensores Unidos Aktiv 104 / 117 40% 1 08.11.2026 -
Federico Versaci Talleres Aktiv 107 / 115 40% 1 07.11.2026 -
Franco Troyansky Audax Italiano Aktiv 103 / 112 40% 4 06.11.2026 -
Luciano Fernández Central Espanol Aktiv 107 / 88 40% 1 06.11.2026 -
Agustín Requena Progreso Aktiv 104 / 93 40% 2 05.11.2026 -
Nicolás Forastiero Deportivo Maldonado Aktiv 104 / 103 40% 3 03.11.2026 -
Federico Losas Chacarita Juniors Aktiv 106 / 102 40% 2 03.11.2026 -
Carlos Airala Albion Aktiv 93 / 91 40% 2 30.10.2026 -
Alejo Antilef Penarol Aktiv 114 / 111 40% 2 30.10.2026 -
Martín Sarrafiore O'Higgins Aktiv 110 / 118 40% 1 29.10.2026 -
Gonzalo Silva Progreso Aktiv 114 / 102 40% 1 29.10.2026 -
Mateo Jara Sportivo Luqueno Aktiv 87 / 71 40% 2 26.10.2026 -
Facundo Paredes River Plate Aktiv 81 / 104 40% 1 26.10.2026 -
Enrique Almeida Cerro Largo Aktiv 99 / 93 40% 1 25.10.2026 -
Rafael Sangiovani Metropolitanos Aktiv 108 / 110 40% 1 25.10.2026 -
Santiago Sala Güemes Aktiv 112 / 112 40% 1 24.10.2026 -
Santiago Costa Albion Aktiv 102 / 110 40% 1 24.10.2026 -
Ignacio Neira Rampla Juniors Aktiv 96 / 104 40% 1 23.10.2026 -
Gary Silva Progreso Aktiv 95 / 97 40% 1 23.10.2026 -
David Veliz Güemes Aktiv 112 / 101 40% 1 22.10.2026 -
Facundo Perdomo Liverpool Montevideo Aktiv 108 / 104 40% 1 21.10.2026 -
Mateo Stefan Cerro Largo Aktiv 76 / 83 40% 1 18.10.2026 -
Lautaro Bursich Talleres Aktiv 105 / 105 40% 1 15.10.2026 -
Sebastián Lentinelly Olimpia Aktiv 98 / 115 40% 1 14.10.2026 -
Guido Sosa Atenas Aktiv 99 / 97 40% 2 13.10.2026 -
Aarón Reartes Wanderers Aktiv 98 / 91 40% 1 13.10.2026 -
Axel Pérez Cerrito Aktiv 110 / 116 40% 1 12.10.2026 -
Juan Ignacio Dupont Central Espanol Aktiv 98 / 87 40% 1 12.10.2026 -
Luis Barbat Cerrito Aktiv 80 / 93 40% 2 11.10.2026 -
Camilo Machado Madryn Aktiv 111 / 101 40% 1 11.10.2026 -
Facundo Muñoa Boston River Aktiv 116 / 120 40% 1 11.10.2026 -
Federico Marín Colegiales Aktiv 97 / 118 40% 1 10.10.2026 -
Kevin Chacón Depor Aktiv 78 / 103 40% 3 06.10.2026 -
Adriano Freitas Deportivo Maldonado Aktiv 110 / 102 40% 2 06.10.2026 -
Lorenzo Couture Penarol Aktiv 87 / 113 40% 1 01.10.2026 -
Ignacio Pereira Danubio Aktiv 98 / 95 40% 1 01.10.2026 -
Braian Galván Oriental Aktiv 96 / 104 40% 2 30.09.2026 -
Emiliano Ancheta Nacional Aktiv 114 / 108 40% 2 30.09.2026 -
Rafael Hornos Liverpool Montevideo Aktiv 85 / 92 40% 1 30.09.2026 -
Franco Díaz Temperley Aktiv 116 / 107 40% 1 27.09.2026 -
Ignacio Palacio All Boys Aktiv 118 / 114 40% 1 26.09.2026 -
Damián Cabrera River Plate Aktiv 93 / 85 40% 1 26.09.2026 -
Lucas Rodríguez Albion Aktiv 118 / 123 40% 1 25.09.2026 -
Emiliano Mozzone Deportivo Maldonado Aktiv 89 / 112 40% 1 25.09.2026 -
Agustín Olavarría Colon Aktiv 96 / 98 40% 1 24.09.2026 -
Pablo Lara Pumas UNAM Aktiv 92 / 100 40% 1 23.09.2026 -
Diego Capdevila Cerro Aktiv 91 / 99 40% 1 23.09.2026 -
Nicolás Fernández Progreso Aktiv 102 / 114 40% 1 23.09.2026 -
Gianluca Pugliese Güemes Aktiv 125 / 111 40% 1 23.09.2026 -
César Munder Palestino Aktiv 116 / 107 40% 1 22.09.2026 -
Lautaro Lovazzano Portuguesa Aktiv 112 / 113 40% 2 20.09.2026 -
Emanuel Sittaro Instituto Aktiv 84 / 84 40% 1 17.09.2026 -
Mateo Puerta Deportivo Cali Aktiv 105 / 109 40% 1 14.09.2026 -
Ángel Maciel Tacuarembo Aktiv 107 / 101 40% 2 13.09.2026 -
Agustín Rivero Aragua Aktiv 74 / 58 40% 1 10.09.2026 -
Ezequiel Busquets Montevideo City Torque Aktiv 103 / 98 40% 1 07.09.2026 -
Heiderber Ramírez Deportivo Tachira Aktiv 114 / 98 40% 1 07.09.2026 -
Alan Brítez Union La Calera Aktiv 94 / 95 40% 2 06.09.2026 -
Andrés Samurio Tacuarembo Aktiv 105 / 110 40% 1 06.09.2026 -
Joaquín Enrico San Telmo Aktiv 93 / 117 40% 1 06.09.2026 -
Facundo Ardiles Estudiantes Aktiv 119 / 107 40% 1 06.09.2026 -
Cristian Trujillo Deportes Tolima Aktiv 110 / 104 40% 1 05.09.2026 -
Leandro Umpiérrez Penarol Aktiv 117 / 117 40% 1 05.09.2026 -
Joaquín Muñoz Rampla Juniors Aktiv 80 / 102 40% 1 03.09.2026 -
David Shrem Toluca Aktiv 100 / 106 40% 1 29.08.2026 -
Agustín Solari 12 de Octubre Aktiv 88 / 80 40% 1 29.08.2026 -
Adrián Vila Rampla Juniors Aktiv 110 / 100 40% 1 28.08.2026 -
Milton Valenzuela Atlas Aktiv 135 / 131 40% 1 27.08.2026 -
Diego Fernández Guarani Aktiv 107 / 117 40% 1 25.08.2026 -
Joshuan Berríos Carabobo Aktiv 91 / 94 40% 1 25.08.2026 -
Federico Dafonte Boston River Aktiv 81 / 99 40% 1 22.08.2026 -
Jairo O'Neill Boston River Aktiv 104 / 84 40% 1 21.08.2026 -
Juan Sebastián Rivero Progreso Aktiv 96 / 105 40% 1 19.08.2026 -
Fernando Tapia Club America Aktiv 111 / 119 40% 2 18.08.2026 -
Brian Lapaz Oriental Aktiv 71 / 91 40% 1 18.08.2026 -
Brian González Atenas Aktiv 112 / 89 40% 1 14.08.2026 -
Santiago Otegui Plaza Colonia Aktiv 104 / 97 40% 1 14.08.2026 -
Juan Manuel Rengifo Atletico Nacional Aktiv 94 / 117 40% 1 12.08.2026 -
Diego González Santos Laguna Aktiv 121 / 112 40% 1 12.08.2026 -
Emiliano Márquez Central Espanol Aktiv 96 / 102 40% 1 11.08.2026 -
Francisco Casanova Cerrito Aktiv 93 / 94 40% 1 11.08.2026 -
Igor Leonardi Montevideo City Torque Aktiv 74 / 74 40% 1 06.08.2026 -
Nicolás Ruiz Valledupar Aktiv 92 / 111 40% 1 06.08.2026 -